createdAt,value
2018-01-07T00:07:02.951Z,994.92
2018-01-07T00:17:30.809Z,995.07
2018-01-07T00:27:58.647Z,995.26
2018-01-07T00:38:26.468Z,995.24
2018-01-07T00:48:54.280Z,995.38
2018-01-07T00:59:22.142Z,995.31
2018-01-07T01:09:49.973Z,995.42
2018-01-07T01:20:17.797Z,995.58
2018-01-07T01:30:45.610Z,995.78
2018-01-07T01:41:13.476Z,996.02
2018-01-07T01:51:41.362Z,996.15
2018-01-07T02:02:09.205Z,996.25
2018-01-07T02:12:37.065Z,996.39
2018-01-07T02:23:04.884Z,996.83
2018-01-07T02:33:32.741Z,996.90
2018-01-07T02:44:00.558Z,996.98
2018-01-07T02:54:28.634Z,997.27
2018-01-07T03:04:56.152Z,997.38
2018-01-07T03:15:23.909Z,997.44
2018-01-07T03:25:52.699Z,997.62
2018-01-07T03:36:19.454Z,997.79
2018-01-07T03:46:48.254Z,997.87
2018-01-07T03:57:15.023Z,998.06
2018-01-07T04:07:42.777Z,998.14
2018-01-07T04:18:10.547Z,998.00
2018-01-07T04:28:38.244Z,998.07
2018-01-07T04:39:05.971Z,998.20
2018-01-07T04:49:33.688Z,998.43
2018-01-07T05:10:29.057Z,998.56
2018-01-07T05:20:56.766Z,998.79
2018-01-07T05:31:24.455Z,998.68
2018-01-07T05:41:52.142Z,998.91
2018-01-07T05:52:19.777Z,999.06
2018-01-07T06:02:47.434Z,999.06
2018-01-07T06:13:15.155Z,999.27
2018-01-07T06:23:42.779Z,999.45
2018-01-07T06:34:10.459Z,999.61
2018-01-07T06:44:38.171Z,999.95
2018-01-07T06:55:05.787Z,1000.19
2018-01-07T07:05:33.418Z,1000.20
2018-01-07T07:16:01.042Z,1000.48
2018-01-07T07:26:28.677Z,1000.74
2018-01-07T07:36:56.299Z,1000.75
2018-01-07T07:47:23.932Z,1000.92
2018-01-07T07:57:51.550Z,1001.16
2018-01-07T08:08:19.215Z,1001.27
2018-01-07T08:18:46.857Z,1001.49
2018-01-07T08:29:14.474Z,1001.63
2018-01-07T08:39:43.380Z,1001.47
2018-01-07T08:50:09.706Z,1001.58
2018-01-07T09:00:37.348Z,1001.98
2018-01-07T09:11:05.008Z,1002.11
2018-01-07T09:21:32.640Z,1002.26
2018-01-07T09:32:00.313Z,1002.42
2018-01-07T09:42:27.979Z,1002.33
2018-01-07T09:52:55.717Z,1002.56
2018-01-07T10:03:23.435Z,1002.83
2018-01-07T10:13:51.197Z,1003.13
2018-01-07T10:24:18.968Z,1003.05
2018-01-07T10:34:46.757Z,1003.03
2018-01-07T10:45:14.551Z,1003.01
2018-01-07T10:55:42.419Z,1003.05
2018-01-07T11:06:10.247Z,1003.24
2018-01-07T11:16:38.152Z,1002.91
2018-01-07T11:27:05.515Z,1003.42
2018-01-07T11:37:33.930Z,1003.11
2018-01-07T11:48:01.880Z,1003.03
2018-01-07T11:58:29.944Z,1003.17
2018-01-07T12:08:57.974Z,1003.02
2018-01-07T12:19:26.142Z,1002.90
2018-01-07T12:29:54.166Z,1003.51
2018-01-07T12:40:22.209Z,1003.45
2018-01-07T12:50:50.223Z,1002.98
2018-01-07T13:01:19.235Z,1003.44
2018-01-07T13:11:46.242Z,1003.18
2018-01-07T13:22:14.200Z,1003.32
2018-01-07T13:32:42.139Z,1003.10
2018-01-07T13:43:10.140Z,1002.75
2018-01-07T13:53:38.142Z,1002.90
2018-01-07T14:04:06.208Z,1003.37
2018-01-07T14:14:34.281Z,1003.46
2018-01-07T14:25:02.275Z,1003.93
2018-01-07T14:35:30.250Z,1003.19
2018-01-07T14:45:58.293Z,1003.17
2018-01-07T14:56:27.399Z,1003.59
2018-01-07T15:06:54.336Z,1004.09
2018-01-07T15:17:22.104Z,1003.98
2018-01-07T15:27:49.760Z,1003.81
2018-01-07T15:38:17.303Z,1003.92
2018-01-07T15:48:44.798Z,1003.89
2018-01-07T15:59:12.233Z,1004.02
2018-01-07T16:09:39.657Z,1003.74
2018-01-07T16:20:07.139Z,1003.97
2018-01-07T16:30:34.532Z,1003.90
2018-01-07T16:41:01.929Z,1004.14
2018-01-07T16:51:29.374Z,1004.34
2018-01-07T17:01:57.818Z,1004.28
2018-01-07T17:12:24.232Z,1004.19
2018-01-07T17:22:51.651Z,1004.39
2018-01-07T17:33:19.163Z,1004.30
2018-01-07T17:43:46.628Z,1004.50
2018-01-07T17:54:14.095Z,1004.42
2018-01-07T18:04:41.563Z,1004.66
2018-01-07T18:15:09.101Z,1004.77
2018-01-07T18:25:36.501Z,1004.80
2018-01-07T18:36:04.000Z,1005.00
2018-01-07T18:46:31.460Z,1005.11
2018-01-07T18:56:58.966Z,1005.00
2018-01-07T19:07:26.444Z,1005.13
2018-01-07T19:17:53.918Z,1005.19
2018-01-07T19:28:21.408Z,1005.22
2018-01-07T19:38:48.849Z,1005.12
2018-01-07T19:49:16.337Z,1005.18
2018-01-07T19:59:43.850Z,1005.21
2018-01-07T20:10:11.376Z,1005.23
2018-01-07T20:20:38.874Z,1005.21
2018-01-07T20:31:06.299Z,1005.33
2018-01-07T20:41:33.802Z,1005.26
2018-01-07T20:52:01.318Z,1005.39
2018-01-07T21:02:28.834Z,1005.58
2018-01-07T21:12:56.288Z,1005.56
2018-01-07T21:23:23.783Z,1005.28
2018-01-07T21:33:51.294Z,1005.40
2018-01-07T21:44:18.761Z,1005.49
2018-01-07T21:54:46.268Z,1005.52
2018-01-07T22:05:13.759Z,1005.49
2018-01-07T22:15:41.296Z,1005.51
2018-01-07T22:26:08.790Z,1005.50
2018-01-07T22:36:36.266Z,1005.37
2018-01-07T22:47:03.745Z,1005.47
2018-01-07T22:57:31.312Z,1005.23
2018-01-07T23:07:58.792Z,1005.16
2018-01-07T23:18:26.288Z,1005.09
2018-01-07T23:28:53.792Z,1005.03
2018-01-07T23:39:21.313Z,1005.07
2018-01-07T23:49:48.826Z,1005.05
